Lincoln Acres, California
Current Conditions -  °F | °C
As of 12:51 AM on Friday 24 Oct 2014 (Local Time) from KSAN Reporting Station
Clear Clear  
Wind Chill: 67°   Ceiling: Unl
Heat Index: 67°   Visibility: 10mi
Dew Point: 55°   Wind: 0mph
Humidity: 66%   Direction: NA
Pressure: 29.96"   Gusts: NA
Location:  32.67°N, 117.07°W
Report Text: KSAN 240751Z 00000KT 10SM CLR 19/13 A2996 RMK AO2 SLP146 T01940128 402560167
Loading
Personal Weather Stations






























Interactive Weather Map
Tropical Storm Tracking
New forecast layout! Learn more

10-Day Weather Forecast

Advertisements
Track Severe Weather on mobile